الصفحة الرئيسية
METAR-TAF:

METAR-TAF

مطار :

سوفا, فيجي

دائرة عرض: 18-03S, خط طول: 178-34E, ارتفاع: 5 متر

مراقبة الطقس الحالي

تاريخ ووقت الإصدار 1ساعة و 14 دقيقة قبل الساعة 23:00UTC
ريح 8 عقدة من الشمال
درجة الحرارة 30°درجة مئوية
الرطوبة 75%
ضغط 1010 hPa
الرؤية 10 كم أو أكثر
غيوم مفككة على ارتفاع 1800 قدم
غيوم مفككة على ارتفاع 4500 قدم

METAR: NFNA 292300Z 01008KT 9999 BKN018 BKN045 30/25 Q1010

زمن: 12:14 (00:14 UTC)

توقعات

تاريخ ووقت الإصدار 1ساعة و 0 دقيقة قبل الساعة 23:14UTC
التوقعات صالحة من30 الساعة 00 UTC إلى 30 الساعة 24 UTC
ريح 8 عقدة من الشمال
الرؤية 10 كم أو أكثر
غيوم مفككة على ارتفاع 1800 قدم
غيوم مفككة على ارتفاع 4500 قدم
مؤقت
من 30 الساعة 00 UTC إلى 30 الساعة 09 UTC
الرؤية: 3000 متر
غيوم مفككة على ارتفاع 1500 قدم
غيوم قليلة على ارتفاع 1700 قدم, مزنة ركامية.
عاصفة رعدية, مطر
نظرية الاحتمالات 40% :
مؤقت
من 30 الساعة 09 UTC إلى 30 الساعة 24 UTC
الرؤية: 5000 متر
غيوم مفككة على ارتفاع 1500 قدم
زخات من المطر

TAF: NFNA 292314Z 3000/3024 01008KT 9999 BKN018 BKN045 TEMPO 3000/3009 3000 TSRA BKN015 FEW017CB PROB40 TEMPO 3009/3024 5000 SHRA BKN015

أرصاد الطقس والتوقعات من أكثر من 4000 مطار (تقارير الطقس للمطار METAR والتنبؤ بالطقس بالمطارTAF).

المحطات المتاحة هي النقط الصفراء والحمراء على الخريطة.

حرك المؤشر فوق النقطة لمعرفة اسم المحطة.

ثم انقر لمعرفة أرصاد وتوقعات الطقس.

لتغيير الخارطة: اضغط على الأزرار الخضراء مع رمز الصليب الأسود للتكبير. على الزر الأخضر مع شرطة للتصغير، أو على الأسهم الخضراء للخرائط المجاورة.


METAR-TAF: